createdAt,value
2018-10-03T00:01:06.706Z,12.19
2018-10-03T00:03:34.273Z,12.18
2018-10-03T00:06:02.106Z,12.17
2018-10-03T00:08:30.154Z,12.18
2018-10-03T00:11:00.695Z,12.16
2018-10-03T00:13:32.649Z,12.15
2018-10-03T00:16:01.989Z,12.15
2018-10-03T00:18:30.176Z,12.13
2018-10-03T00:21:01.065Z,12.11
2018-10-03T00:23:28.593Z,12.11
2018-10-03T00:25:56.180Z,12.13
2018-10-03T00:28:24.202Z,12.14
2018-10-03T00:30:52.442Z,12.16
2018-10-03T00:33:20.830Z,12.18
2018-10-03T00:35:49.875Z,12.20
2018-10-03T00:38:19.233Z,12.19
2018-10-03T00:40:46.781Z,12.21
2018-10-03T00:43:14.649Z,12.22
2018-10-03T00:45:42.326Z,12.24
2018-10-03T00:48:10.186Z,12.25
2018-10-03T00:50:38.269Z,12.26
2018-10-03T00:53:05.836Z,12.25
2018-10-03T00:55:36.617Z,12.26
2018-10-03T00:58:04.489Z,12.26
2018-10-03T01:00:32.037Z,12.26
2018-10-03T01:03:00.249Z,12.26
2018-10-03T01:05:28.118Z,12.25
2018-10-03T01:07:55.674Z,12.26
2018-10-03T01:10:23.925Z,12.26
2018-10-03T01:12:53.040Z,12.25
2018-10-03T01:15:21.286Z,12.25
2018-10-03T01:17:48.829Z,12.24
2018-10-03T01:20:18.290Z,12.23
2018-10-03T01:22:47.035Z,12.23
2018-10-03T01:25:14.588Z,12.22
2018-10-03T01:27:42.140Z,12.23
2018-10-03T01:30:10.058Z,12.23
2018-10-03T01:32:37.593Z,12.24
2018-10-03T01:35:05.106Z,12.25
2018-10-03T01:37:32.686Z,12.25
2018-10-03T01:40:00.665Z,12.25
2018-10-03T01:42:29.348Z,12.26
2018-10-03T01:44:56.887Z,12.25
2018-10-03T01:47:25.659Z,12.25
2018-10-03T01:49:53.202Z,12.22
2018-10-03T01:52:20.725Z,12.18
2018-10-03T01:54:48.689Z,12.12
2018-10-03T01:57:16.305Z,12.05
2018-10-03T01:59:43.942Z,12.01
2018-10-03T02:02:11.921Z,11.98
2018-10-03T02:04:39.461Z,11.93
2018-10-03T02:07:07.024Z,11.91
2018-10-03T02:09:35.104Z,11.92
2018-10-03T02:12:02.989Z,11.93
2018-10-03T02:14:30.504Z,11.95
2018-10-03T02:16:58.031Z,11.95
2018-10-03T02:19:25.981Z,11.95
2018-10-03T02:21:53.497Z,11.95
2018-10-03T02:24:21.395Z,11.92
2018-10-03T02:26:50.315Z,11.89
2018-10-03T02:29:17.902Z,11.85
2018-10-03T02:31:45.449Z,11.80
2018-10-03T02:34:12.956Z,11.75
2018-10-03T02:36:40.780Z,11.73
2018-10-03T02:39:08.409Z,11.71
2018-10-03T02:41:35.900Z,11.72
2018-10-03T02:44:03.413Z,11.73
2018-10-03T02:46:31.235Z,11.72
2018-10-03T02:48:58.744Z,11.70
2018-10-03T02:51:26.265Z,11.69
2018-10-03T02:53:54.189Z,11.69
2018-10-03T02:56:21.675Z,11.67
2018-10-03T02:58:50.367Z,11.68
2018-10-03T03:01:18.531Z,11.69
2018-10-03T03:03:46.505Z,11.70
2018-10-03T03:06:15.024Z,11.72
2018-10-03T03:08:43.145Z,11.76
2018-10-03T03:11:11.091Z,11.78
2018-10-03T03:13:38.587Z,11.81
2018-10-03T03:16:07.696Z,11.82
2018-10-03T03:18:36.594Z,11.82
2018-10-03T03:21:04.493Z,11.79
2018-10-03T03:23:32.084Z,11.74
2018-10-03T03:25:59.676Z,11.68
2018-10-03T03:28:28.435Z,11.63
2018-10-03T03:30:55.978Z,11.58
2018-10-03T03:33:23.579Z,11.56
2018-10-03T03:35:51.407Z,11.55
2018-10-03T03:38:19.430Z,11.54
2018-10-03T03:40:46.948Z,11.53
2018-10-03T03:43:14.828Z,11.58
2018-10-03T03:45:42.469Z,11.57
2018-10-03T03:48:09.983Z,11.60
2018-10-03T03:50:37.486Z,11.63
2018-10-03T03:53:05.468Z,11.68
2018-10-03T03:55:32.969Z,11.72
2018-10-03T03:58:00.475Z,11.74
2018-10-03T04:00:28.444Z,11.78
2018-10-03T04:02:55.931Z,11.81
2018-10-03T04:05:23.416Z,11.84
2018-10-03T04:07:51.267Z,11.85
2018-10-03T04:10:18.769Z,11.87
2018-10-03T04:12:48.182Z,11.88
2018-10-03T04:15:15.744Z,11.89
2018-10-03T04:17:43.699Z,11.89
2018-10-03T04:20:12.196Z,11.89
2018-10-03T04:22:39.724Z,11.89
2018-10-03T04:25:08.832Z,11.90
2018-10-03T04:27:36.337Z,11.91
2018-10-03T04:30:03.846Z,11.90
2018-10-03T04:32:32.260Z,11.92
2018-10-03T04:35:00.229Z,11.90
2018-10-03T04:37:27.749Z,11.89
2018-10-03T04:39:55.256Z,11.90
2018-10-03T04:42:22.861Z,11.90
2018-10-03T04:44:50.668Z,11.91
2018-10-03T04:47:20.830Z,11.94
2018-10-03T04:49:48.328Z,11.98
2018-10-03T04:52:15.813Z,11.98
2018-10-03T04:54:43.452Z,12.00
2018-10-03T04:57:10.964Z,12.00
2018-10-03T04:59:38.508Z,12.00
2018-10-03T05:02:06.371Z,12.01
2018-10-03T05:04:33.869Z,12.03
2018-10-03T05:07:01.408Z,12.05
2018-10-03T05:09:28.924Z,12.07
2018-10-03T05:11:56.754Z,12.09
2018-10-03T05:14:27.432Z,12.11
2018-10-03T05:16:55.766Z,12.13
2018-10-03T05:19:23.603Z,12.15
2018-10-03T05:21:51.124Z,12.12
2018-10-03T05:24:18.650Z,12.10
2018-10-03T05:26:47.295Z,12.08
2018-10-03T05:29:15.117Z,12.06
2018-10-03T05:31:42.646Z,12.03
2018-10-03T05:34:10.246Z,12.00
2018-10-03T05:36:39.409Z,12.00
2018-10-03T05:39:06.939Z,12.00
2018-10-03T05:41:34.431Z,12.00
2018-10-03T05:44:01.917Z,11.98
2018-10-03T05:46:30.768Z,11.98
2018-10-03T05:48:58.296Z,11.99
2018-10-03T05:51:25.969Z,11.99
2018-10-03T05:53:53.484Z,12.01
2018-10-03T05:56:20.988Z,12.01
2018-10-03T05:58:48.501Z,12.02
2018-10-03T06:01:15.987Z,12.02
2018-10-03T06:03:43.790Z,12.02
2018-10-03T06:06:11.574Z,12.02
2018-10-03T06:08:39.055Z,12.02
2018-10-03T06:11:07.233Z,12.01
2018-10-03T06:13:35.047Z,11.98
2018-10-03T06:16:03.468Z,11.92
2018-10-03T06:18:31.800Z,11.89
2018-10-03T06:21:02.816Z,11.89
2018-10-03T06:23:30.558Z,11.91
2018-10-03T06:25:58.053Z,11.95
2018-10-03T06:28:25.984Z,11.96
2018-10-03T06:30:53.507Z,11.99
2018-10-03T06:33:22.719Z,12.02
2018-10-03T06:35:50.556Z,12.03
2018-10-03T06:38:18.084Z,12.03
2018-10-03T06:40:45.580Z,12.02
2018-10-03T06:43:14.533Z,12.04
2018-10-03T06:45:42.534Z,12.07
2018-10-03T06:48:10.032Z,12.11
2018-10-03T06:50:38.528Z,12.17
2018-10-03T06:53:06.988Z,12.20
2018-10-03T06:55:35.431Z,12.22
2018-10-03T06:58:03.467Z,12.25
2018-10-03T07:00:32.236Z,12.31
2018-10-03T07:03:00.406Z,12.35
2018-10-03T07:05:29.120Z,12.38
2018-10-03T07:07:57.633Z,12.42
2018-10-03T07:10:25.905Z,12.45
2018-10-03T07:12:54.370Z,12.49
2018-10-03T07:15:22.492Z,12.53
2018-10-03T07:17:52.170Z,12.58
2018-10-03T07:20:21.075Z,12.60
2018-10-03T07:22:49.703Z,12.62
2018-10-03T07:25:18.441Z,12.65
2018-10-03T07:27:47.153Z,12.67
2018-10-03T07:30:16.342Z,12.74
2018-10-03T07:32:43.895Z,12.81
2018-10-03T07:35:11.452Z,12.86
2018-10-03T07:37:40.070Z,12.89
2018-10-03T07:40:08.719Z,12.93
2018-10-03T07:42:37.643Z,12.98
2018-10-03T07:45:06.356Z,13.00
2018-10-03T07:47:40.697Z,13.04
2018-10-03T07:50:09.486Z,13.12
2018-10-03T07:52:37.388Z,13.17
2018-10-03T07:55:06.308Z,13.23
2018-10-03T08:00:08.911Z,13.32
2018-10-03T08:02:36.569Z,13.39
2018-10-03T08:05:04.324Z,13.47
2018-10-03T08:07:32.190Z,13.53
2018-10-03T08:09:59.750Z,13.59
2018-10-03T08:12:30.083Z,13.69
2018-10-03T08:14:59.236Z,13.80
2018-10-03T08:17:27.430Z,13.85
2018-10-03T08:19:56.467Z,13.92
2018-10-03T08:22:24.512Z,13.98
2018-10-03T08:24:53.232Z,14.01
2018-10-03T08:27:23.111Z,13.98
2018-10-03T08:29:55.452Z,14.00
2018-10-03T08:32:24.156Z,14.08
2018-10-03T08:34:51.697Z,14.18
2018-10-03T08:37:25.723Z,14.26
2018-10-03T08:45:00.229Z,14.51
2018-10-03T08:47:28.385Z,14.51
2018-10-03T08:49:58.507Z,14.55
2018-10-03T08:52:26.905Z,14.78
2018-10-03T08:54:55.657Z,14.92
2018-10-03T08:57:24.597Z,15.05
2018-10-03T08:59:53.380Z,15.25
2018-10-03T09:02:23.350Z,15.45
2018-10-03T09:04:53.662Z,15.55
2018-10-03T09:07:21.195Z,15.58
2018-10-03T09:09:50.931Z,15.56
2018-10-03T09:12:19.875Z,15.45
2018-10-03T09:14:48.222Z,15.37
2018-10-03T09:17:16.812Z,15.28
2018-10-03T09:19:55.359Z,15.21
2018-10-03T09:22:23.663Z,15.18
2018-10-03T09:24:52.878Z,15.20
2018-10-03T09:27:22.266Z,15.26
2018-10-03T09:29:50.760Z,15.25
2018-10-03T09:32:18.582Z,15.15
2018-10-03T09:34:47.341Z,15.05
2018-10-03T09:37:14.852Z,15.01
2018-10-03T09:39:46.375Z,15.04
2018-10-03T09:42:14.542Z,15.01
2018-10-03T09:44:43.704Z,15.23
2018-10-03T09:47:12.083Z,15.40
2018-10-03T09:49:40.206Z,15.60
2018-10-03T09:52:09.019Z,15.69
2018-10-03T09:54:37.238Z,15.66
2018-10-03T09:57:06.670Z,15.67
2018-10-03T09:59:38.799Z,15.72
2018-10-03T10:02:10.472Z,15.78
2018-10-03T10:04:38.502Z,15.84
2018-10-03T10:07:06.782Z,15.95
2018-10-03T10:09:35.427Z,16.04
2018-10-03T10:12:04.621Z,16.45
2018-10-03T10:14:33.413Z,17.46
2018-10-03T10:17:02.074Z,18.77
2018-10-03T10:19:30.599Z,19.07
2018-10-03T10:21:58.624Z,18.71
2018-10-03T10:24:26.488Z,18.12
2018-10-03T10:26:54.000Z,17.55
2018-10-03T10:29:22.557Z,17.25
2018-10-03T10:31:54.154Z,16.93
2018-10-03T10:34:22.608Z,16.56
2018-10-03T10:36:50.128Z,16.27
2018-10-03T10:39:21.300Z,16.02
2018-10-03T10:41:50.647Z,15.75
2018-10-03T10:44:19.136Z,15.58
2018-10-03T10:46:47.387Z,15.49
2018-10-03T10:49:15.526Z,16.05
2018-10-03T10:51:44.585Z,17.21
2018-10-03T10:54:12.392Z,17.50
2018-10-03T10:56:41.248Z,17.64
2018-10-03T10:59:10.351Z,18.13
2018-10-03T11:01:39.836Z,18.92
2018-10-03T11:04:09.704Z,19.39
2018-10-03T11:06:39.081Z,19.63
2018-10-03T11:09:07.691Z,19.69
2018-10-03T11:11:36.621Z,19.78
2018-10-03T11:14:05.022Z,19.46
2018-10-03T11:16:35.205Z,18.91
2018-10-03T11:19:03.548Z,18.26
2018-10-03T11:21:31.771Z,17.67
2018-10-03T11:24:01.244Z,17.19
2018-10-03T11:26:30.264Z,17.20
2018-10-03T11:28:58.612Z,17.37
2018-10-03T11:31:29.276Z,17.37
2018-10-03T11:34:00.462Z,18.01
2018-10-03T11:36:30.077Z,18.73
2018-10-03T11:39:02.690Z,19.34
2018-10-03T11:41:32.537Z,19.72
2018-10-03T11:44:01.571Z,19.92
2018-10-03T11:46:32.631Z,20.06
2018-10-03T11:49:01.484Z,20.48
2018-10-03T11:51:30.770Z,20.83
2018-10-03T11:54:02.232Z,21.08
2018-10-03T11:56:30.733Z,20.97
2018-10-03T11:59:00.464Z,20.28
2018-10-03T12:01:28.610Z,19.57
2018-10-03T12:03:57.764Z,19.50
2018-10-03T12:06:27.545Z,19.12
2018-10-03T12:08:56.531Z,18.81
2018-10-03T12:11:27.276Z,19.21
2018-10-03T12:13:56.428Z,19.97
2018-10-03T12:16:25.347Z,20.55
2018-10-03T12:18:54.240Z,21.23
2018-10-03T12:21:22.543Z,21.17
2018-10-03T12:23:54.840Z,20.43
2018-10-03T12:26:22.369Z,19.69
2018-10-03T12:28:50.590Z,19.00
2018-10-03T12:31:24.184Z,18.41
2018-10-03T12:33:53.421Z,18.08
2018-10-03T12:36:22.347Z,18.21
2018-10-03T12:38:50.176Z,18.46
2018-10-03T12:41:21.345Z,18.52
2018-10-03T12:43:49.664Z,18.49
2018-10-03T12:46:19.276Z,18.38
2018-10-03T12:48:47.895Z,18.12
2018-10-03T12:51:15.435Z,17.86
2018-10-03T12:53:44.697Z,17.64
2018-10-03T12:56:13.971Z,17.49
2018-10-03T12:58:42.275Z,17.31
2018-10-03T13:01:10.479Z,17.15
2018-10-03T13:03:38.923Z,17.05
2018-10-03T13:06:10.774Z,17.08
2018-10-03T13:08:46.325Z,17.01
2018-10-03T13:11:14.631Z,16.87
2018-10-03T13:13:42.663Z,16.80
2018-10-03T13:16:12.088Z,16.80
2018-10-03T13:18:40.266Z,16.80
2018-10-03T13:21:08.347Z,16.81
2018-10-03T13:23:37.843Z,16.81
2018-10-03T13:26:05.463Z,16.80
2018-10-03T13:28:35.021Z,16.73
2018-10-03T13:31:06.818Z,16.59
2018-10-03T13:33:36.374Z,16.44
2018-10-03T13:36:07.004Z,16.31
2018-10-03T13:38:37.377Z,16.30
2018-10-03T13:41:07.383Z,16.36
2018-10-03T13:43:35.878Z,16.43
2018-10-03T13:46:06.941Z,16.47
2018-10-03T13:48:34.739Z,16.46
2018-10-03T13:51:05.255Z,16.42
2018-10-03T13:53:35.284Z,16.30
2018-10-03T13:56:03.779Z,16.18
2018-10-03T13:58:34.526Z,16.15
2018-10-03T14:01:05.799Z,16.14
2018-10-03T14:03:35.373Z,16.12
2018-10-03T14:06:04.075Z,16.18
2018-10-03T14:08:36.400Z,16.31
2018-10-03T14:11:08.469Z,16.45
2018-10-03T14:13:38.172Z,16.41
2018-10-03T14:16:10.079Z,16.42
2018-10-03T14:21:11.703Z,16.37
2018-10-03T14:23:39.199Z,16.31
2018-10-03T14:26:08.452Z,16.22
2018-10-03T14:28:47.343Z,16.09
2018-10-03T14:31:15.692Z,15.97
2018-10-03T14:33:43.567Z,15.83
2018-10-03T14:36:11.743Z,15.68
2018-10-03T14:38:39.281Z,15.60
2018-10-03T14:41:08.814Z,15.57
2018-10-03T14:43:37.133Z,15.56
2018-10-03T14:46:05.160Z,15.59
2018-10-03T14:48:33.617Z,15.67
2018-10-03T14:51:01.624Z,15.66
2018-10-03T14:53:32.654Z,15.56
2018-10-03T14:56:01.010Z,15.50
2018-10-03T14:58:28.682Z,15.52
2018-10-03T15:00:57.397Z,15.66
2018-10-03T15:03:27.616Z,15.82
2018-10-03T15:05:57.445Z,15.95
2018-10-03T15:08:25.573Z,16.05
2018-10-03T15:10:53.442Z,16.16
2018-10-03T15:13:20.959Z,16.28
2018-10-03T15:15:48.480Z,16.36
2018-10-03T15:18:18.572Z,16.42
2018-10-03T15:20:46.755Z,16.48
2018-10-03T15:25:53.325Z,16.73
2018-10-03T15:28:20.837Z,16.84
2018-10-03T15:30:50.278Z,16.73
2018-10-03T15:33:27.512Z,16.55
2018-10-03T15:35:55.003Z,16.45
2018-10-03T15:38:23.667Z,16.35
2018-10-03T15:40:51.604Z,16.17
2018-10-03T15:43:19.923Z,15.97
2018-10-03T15:45:51.564Z,15.77
2018-10-03T15:48:22.859Z,15.62
2018-10-03T15:50:50.356Z,15.47
2018-10-03T15:53:18.450Z,15.34
2018-10-03T15:55:46.385Z,15.23
2018-10-03T15:58:17.464Z,15.14
2018-10-03T16:00:47.801Z,15.04
2018-10-03T16:03:22.516Z,14.95
2018-10-03T16:05:56.211Z,14.87
2018-10-03T16:08:25.140Z,14.79
2018-10-03T16:10:52.660Z,14.71
2018-10-03T16:13:22.750Z,14.65
2018-10-03T16:15:52.350Z,14.60
2018-10-03T16:18:21.299Z,14.56
2018-10-03T16:20:50.298Z,14.52
2018-10-03T16:23:19.592Z,14.45
2018-10-03T16:25:50.791Z,14.39
2018-10-03T16:28:19.416Z,14.32
2018-10-03T16:30:49.340Z,14.27
2018-10-03T16:33:19.403Z,14.21
2018-10-03T16:35:50.412Z,14.14
2018-10-03T16:38:18.379Z,14.08
2018-10-03T16:43:25.264Z,13.96
2018-10-03T16:45:55.675Z,13.87
2018-10-03T16:48:23.911Z,13.81
2018-10-03T16:50:53.508Z,13.72
2018-10-03T16:53:22.639Z,13.63
2018-10-03T16:55:50.995Z,13.57
2018-10-03T16:58:19.800Z,13.52
2018-10-03T17:00:48.483Z,13.47
2018-10-03T17:03:20.395Z,13.39
2018-10-03T17:05:48.604Z,13.33
2018-10-03T17:08:18.315Z,13.26
2018-10-03T17:10:52.448Z,13.19
2018-10-03T17:13:21.852Z,13.13
2018-10-03T17:15:49.590Z,13.08
2018-10-03T17:18:17.943Z,13.05
2018-10-03T17:20:46.257Z,12.99
2018-10-03T17:23:14.515Z,12.94
2018-10-03T17:25:42.800Z,12.89
2018-10-03T17:28:12.306Z,12.86
2018-10-03T17:30:41.339Z,12.81
2018-10-03T17:33:15.487Z,12.78
2018-10-03T17:35:43.818Z,12.74
2018-10-03T17:38:13.302Z,12.69
2018-10-03T17:40:41.176Z,12.67
2018-10-03T17:43:09.655Z,12.61
2018-10-03T17:45:39.911Z,12.57
2018-10-03T17:48:12.504Z,12.55
2018-10-03T17:50:50.263Z,12.52
2018-10-03T17:53:19.569Z,12.49
2018-10-03T17:55:48.148Z,12.45
2018-10-03T17:58:16.318Z,12.42
2018-10-03T18:00:46.045Z,12.38
2018-10-03T18:03:14.859Z,12.35
2018-10-03T18:05:42.590Z,12.31
2018-10-03T18:08:12.395Z,12.27
2018-10-03T18:13:16.403Z,12.20
2018-10-03T18:15:46.124Z,12.25
2018-10-03T18:18:15.915Z,12.30
2018-10-03T18:20:49.309Z,12.35
2018-10-03T18:23:20.633Z,12.36
2018-10-03T18:25:55.512Z,12.35
2018-10-03T18:28:25.843Z,12.33
2018-10-03T18:30:54.540Z,12.33
2018-10-03T18:33:23.251Z,12.35
2018-10-03T18:35:52.328Z,12.38
2018-10-03T18:38:21.940Z,12.39
2018-10-03T18:40:51.049Z,12.39
2018-10-03T18:43:20.659Z,12.37
2018-10-03T18:45:50.454Z,12.36
2018-10-03T18:48:19.368Z,12.33
2018-10-03T18:50:49.239Z,12.31
2018-10-03T18:53:19.424Z,12.31
2018-10-03T18:55:49.513Z,12.32
2018-10-03T18:58:19.399Z,12.33
2018-10-03T19:00:48.042Z,12.38
2018-10-03T19:03:18.857Z,12.40
2018-10-03T19:05:54.149Z,12.44
2018-10-03T19:08:23.366Z,12.47
2018-10-03T19:10:53.599Z,12.49
2018-10-03T19:13:23.194Z,12.50
2018-10-03T19:15:50.717Z,12.51
2018-10-03T19:18:24.372Z,12.53
2018-10-03T19:20:56.583Z,12.51
2018-10-03T19:26:04.633Z,12.53
2018-10-03T19:28:39.319Z,12.54
2018-10-03T19:33:52.275Z,12.52
2018-10-03T19:36:24.834Z,12.48
2018-10-03T19:41:26.299Z,12.38
2018-10-03T19:43:57.195Z,12.34
2018-10-03T19:46:26.219Z,12.28
2018-10-03T19:48:55.100Z,12.23
2018-10-03T19:51:24.557Z,12.19
2018-10-03T19:53:56.478Z,12.16
2018-10-03T19:56:24.122Z,12.12
2018-10-03T19:58:56.689Z,12.09
2018-10-03T20:01:29.376Z,12.05
2018-10-03T20:04:00.368Z,12.00
2018-10-03T20:06:28.145Z,11.94
2018-10-03T20:08:58.024Z,11.88
2018-10-03T20:11:26.816Z,11.85
2018-10-03T20:13:55.610Z,11.81
2018-10-03T20:16:24.911Z,11.77
2018-10-03T20:18:54.383Z,11.74
2018-10-03T20:21:22.519Z,11.72
2018-10-03T20:23:50.839Z,11.69
2018-10-03T20:26:18.461Z,11.65
2018-10-03T20:28:47.763Z,11.62
2018-10-03T20:31:15.879Z,11.59
2018-10-03T20:33:44.098Z,11.56
2018-10-03T20:36:13.274Z,11.52
2018-10-03T20:38:41.502Z,11.48
2018-10-03T20:41:09.884Z,11.44
2018-10-03T20:43:40.024Z,11.42
2018-10-03T20:46:08.304Z,11.40
2018-10-03T20:48:36.670Z,11.35
2018-10-03T20:51:08.221Z,11.33
2018-10-03T20:53:35.817Z,11.28
2018-10-03T20:56:04.432Z,11.24
2018-10-03T20:58:35.369Z,11.20
2018-10-03T21:01:03.756Z,11.18
2018-10-03T21:03:31.772Z,11.15
2018-10-03T21:06:01.463Z,11.13
2018-10-03T21:08:29.490Z,11.11
2018-10-03T21:10:59.145Z,11.10
2018-10-03T21:13:30.459Z,11.07
2018-10-03T21:15:59.422Z,11.03
2018-10-03T21:18:26.897Z,11.01
2018-10-03T21:20:56.603Z,10.98
2018-10-03T21:23:25.480Z,10.96
2018-10-03T21:25:53.263Z,10.94
2018-10-03T21:28:25.575Z,10.92
2018-10-03T21:30:53.370Z,10.89
2018-10-03T21:33:20.848Z,10.86
2018-10-03T21:38:25.940Z,10.81
2018-10-03T21:40:54.394Z,10.79
2018-10-03T21:43:21.978Z,10.76
2018-10-03T21:45:50.329Z,10.76
2018-10-03T21:48:18.211Z,10.74
2018-10-03T21:50:47.733Z,10.74
2018-10-03T21:53:18.379Z,10.72
2018-10-03T21:55:48.100Z,10.70
2018-10-03T21:58:16.387Z,10.66
2018-10-03T22:00:50.041Z,10.62
2018-10-03T22:03:17.894Z,10.59
2018-10-03T22:05:46.450Z,10.54
2018-10-03T22:08:13.934Z,10.50
2018-10-03T22:10:41.923Z,10.46
2018-10-03T22:13:10.096Z,10.43
2018-10-03T22:15:37.615Z,10.43
2018-10-03T22:18:05.512Z,10.43
2018-10-03T22:20:33.754Z,10.43
2018-10-03T22:23:03.262Z,10.44
2018-10-03T22:25:39.943Z,10.45
2018-10-03T22:28:08.007Z,10.47
2018-10-03T22:30:36.106Z,10.44
2018-10-03T22:33:06.516Z,10.44
2018-10-03T22:35:35.389Z,10.40
2018-10-03T22:38:03.035Z,10.39
2018-10-03T22:40:30.823Z,10.37
2018-10-03T22:42:58.370Z,10.34
2018-10-03T22:45:25.925Z,10.32
2018-10-03T22:47:54.542Z,10.31
2018-10-03T22:50:22.139Z,10.31
2018-10-03T22:52:51.683Z,10.33
2018-10-03T22:55:23.045Z,10.34
2018-10-03T22:57:51.282Z,10.37
2018-10-03T23:00:20.532Z,10.39
2018-10-03T23:02:49.377Z,10.41
2018-10-03T23:05:19.148Z,10.36
2018-10-03T23:07:46.731Z,10.28
2018-10-03T23:10:14.329Z,10.14
2018-10-03T23:12:44.957Z,10.04
2018-10-03T23:15:13.744Z,9.95
2018-10-03T23:17:42.113Z,9.89
2018-10-03T23:20:10.578Z,9.87
2018-10-03T23:22:38.121Z,9.88
2018-10-03T23:25:05.709Z,9.91
2018-10-03T23:27:33.825Z,9.91
2018-10-03T23:30:05.311Z,9.93
2018-10-03T23:32:34.419Z,9.93
2018-10-03T23:35:03.614Z,9.90
2018-10-03T23:37:31.169Z,9.85
2018-10-03T23:39:59.158Z,9.78
2018-10-03T23:42:26.740Z,9.76
2018-10-03T23:44:55.473Z,9.76
2018-10-03T23:47:23.213Z,9.75
2018-10-03T23:49:51.223Z,9.74
2018-10-03T23:52:18.793Z,9.73
2018-10-03T23:54:46.918Z,9.73
2018-10-03T23:57:14.853Z,9.74
2018-10-03T23:59:42.601Z,9.74
